Time;durP1;ratioP1;P1;durP2;ratioP2;P2;SDS_P1;SDS_P2;PMS_P1;PMS_P2;Temp;Humidity;BMP_temperature;BMP_pressure;BME280_temperature;BME280_humidity;BME280_pressure;Samples;Min_cycle;Max_cycle;Signal;HPM_P1;HPM_P2
2022/10/13 00:01:40;;;;;;;23.20;12.63;;;10.20;99.90;;;;;;5031795;28;20044;-69
2022/10/13 00:04:05;;;;;;;22.35;12.93;;;10.10;99.90;;;;;;5031482;28;20041;-68
2022/10/13 00:06:31;;;;;;;19.50;12.30;;;10.20;99.90;;;;;;5031557;28;20038;-69
2022/10/13 00:08:57;;;;;;;21.02;12.20;;;10.20;99.90;;;;;;5031749;28;20041;-69
2022/10/13 00:11:26;;;;;;;20.67;13.60;;;10.20;99.90;;;;;;5031802;28;20041;-69
2022/10/13 00:13:56;;;;;;;20.70;12.30;;;10.30;99.90;;;;;;5031393;28;20069;-69
2022/10/13 00:16:22;;;;;;;24.90;13.60;;;10.20;99.90;;;;;;5031694;28;20069;-69
2022/10/13 00:18:48;;;;;;;23.42;13.27;;;10.20;99.90;;;;;;5031344;28;20131;-69
2022/10/13 00:21:17;;;;;;;26.75;13.38;;;10.20;99.90;;;;;;5031519;28;20033;-69
2022/10/13 00:23:43;;;;;;;17.98;12.55;;;10.20;99.90;;;;;;5031266;28;20123;-68
2022/10/13 00:26:12;;;;;;;24.85;13.45;;;10.20;99.90;;;;;;5031636;28;20061;-69
2022/10/13 00:28:38;;;;;;;20.83;13.52;;;10.10;99.90;;;;;;5031511;28;20042;-69
2022/10/13 00:31:18;;;;;;;20.30;13.73;;;10.20;99.90;;;;;;5030307;28;20053;-69
2022/10/13 00:33:43;;;;;;;30.80;14.25;;;10.30;99.90;;;;;;5031036;28;20037;-69
2022/10/13 00:36:09;;;;;;;25.58;13.45;;;10.10;99.90;;;;;;5031589;28;20046;-69
2022/10/13 00:38:34;;;;;;;22.70;13.75;;;10.20;99.90;;;;;;5031377;28;20033;-69
2022/10/13 00:41:00;;;;;;;26.15;13.70;;;10.20;99.90;;;;;;5031451;28;20121;-69
2022/10/13 00:43:50;;;;;;;23.50;13.88;;;10.10;99.90;;;;;;5031150;28;20498;-69
2022/10/13 00:46:16;;;;;;;24.13;14.27;;;10.20;99.90;;;;;;5031180;28;20092;-69
2022/10/13 00:48:43;;;;;;;23.13;13.43;;;10.30;99.90;;;;;;5032366;28;20411;-69
2022/10/13 00:51:11;;;;;;;24.48;13.60;;;10.30;99.90;;;;;;5035126;28;20045;-69
2022/10/13 00:53:38;;;;;;;31.90;15.40;;;10.20;99.90;;;;;;5034775;28;20052;-69
2022/10/13 00:56:06;;;;;;;25.90;13.15;;;10.20;99.90;;;;;;5034912;28;20041;-69
2022/10/13 00:58:35;;;;;;;23.35;13.90;;;10.30;99.90;;;;;;5034696;28;20465;-69
2022/10/13 01:01:02;;;;;;;23.23;13.68;;;10.30;99.90;;;;;;5034811;28;20479;-69
2022/10/13 01:03:28;;;;;;;24.23;13.85;;;10.20;99.90;;;;;;5034613;28;20112;-69
2022/10/13 01:05:57;;;;;;;27.08;14.75;;;10.30;99.90;;;;;;5034820;28;20164;-69
2022/10/13 01:08:25;;;;;;;25.05;14.50;;;10.20;99.90;;;;;;5034865;28;20042;-69
2022/10/13 01:11:09;;;;;;;28.67;16.08;;;10.30;99.90;;;;;;5033246;28;20518;-69
2022/10/13 01:13:41;;;;;;;;;;;10.30;99.90;;;;;;5034996;28;20037;-69
2022/10/13 01:16:32;;;;;;;25.77;14.32;;;10.20;99.90;;;;;;5034664;28;19917;-68
2022/10/13 01:19:16;;;;;;;23.42;13.52;;;10.20;99.90;;;;;;5034288;28;20080;-68
2022/10/13 01:22:01;;;;;;;21.50;12.82;;;10.20;99.90;;;;;;5034654;28;20438;-69
2022/10/13 01:25:23;;;;;;;29.65;15.15;;;10.20;99.90;;;;;;5034328;28;20400;-69
2022/10/13 01:28:06;;;;;;;26.42;15.05;;;10.30;99.90;;;;;;4973195;28;20042;-69
2022/10/13 01:30:42;;;;;;;25.23;14.65;;;10.20;99.90;;;;;;4957029;28;20051;-69
2022/10/13 01:33:30;;;;;;;25.85;15.20;;;10.20;99.90;;;;;;5020465;28;20056;-69
2022/10/13 01:36:11;;;;;;;27.15;14.02;;;10.20;99.90;;;;;;5032921;28;20037;-69
2022/10/13 01:38:46;;;;;;;25.25;15.85;;;10.10;99.90;;;;;;5034207;28;20053;-69
2022/10/13 01:41:23;;;;;;;27.63;14.80;;;10.20;99.90;;;;;;5034282;28;20047;-69
2022/10/13 01:43:59;;;;;;;27.02;15.68;;;10.20;99.90;;;;;;5033730;28;20594;-69
2022/10/13 01:46:32;;;;;;;24.33;14.82;;;10.10;99.90;;;;;;5033902;28;20041;-69
2022/10/13 01:49:01;;;;;;;26.40;16.60;;;10.20;99.90;;;;;;5032602;28;20044;-69
2022/10/13 01:51:29;;;;;;;29.58;16.63;;;10.10;99.90;;;;;;5034060;28;20049;-69
2022/10/13 01:53:54;;;;;;;20.38;13.93;;;10.30;99.90;;;;;;5016098;28;20049;-69
2022/10/13 01:56:20;;;;;;;30.73;15.70;;;10.20;99.90;;;;;;5032628;28;20513;-69
2022/10/13 01:58:48;;;;;;;29.67;14.98;;;10.10;99.90;;;;;;5033417;28;20475;-69
2022/10/13 02:01:56;;;;;;;24.35;14.95;;;10.10;99.90;;;;;;5033527;28;20047;-69
2022/10/13 02:04:45;;;;;;;33.33;16.20;;;10.10;99.90;;;;;;4994248;28;20132;-68
2022/10/13 02:07:15;;;;;;;23.83;15.27;;;10.00;99.90;;;;;;5033641;28;20041;-69
2022/10/13 02:09:57;;;;;;;25.65;14.45;;;10.00;99.90;;;;;;5033796;28;20038;-69
2022/10/13 02:12:47;;;;;;;28.08;16.45;;;10.00;99.90;;;;;;5032001;28;20042;-69
2022/10/13 02:15:16;;;;;;;24.45;14.43;;;10.10;99.90;;;;;;5033493;28;20495;-69
2022/10/13 02:17:42;;;;;;;24.95;14.88;;;10.10;99.90;;;;;;5033288;28;20087;-69
2022/10/13 02:20:09;;;;;;;29.00;16.90;;;10.10;99.90;;;;;;5033120;28;20483;-69
2022/10/13 02:22:42;;;;;;;27.25;14.55;;;10.10;99.90;;;;;;5033219;28;20037;-69
2022/10/13 02:25:08;;;;;;;26.30;15.05;;;10.10;99.90;;;;;;5033290;28;20506;-69
2022/10/13 02:27:33;;;;;;;31.13;15.40;;;10.10;99.90;;;;;;5033284;28;20041;-69
2022/10/13 02:29:59;;;;;;;26.42;14.65;;;10.00;99.90;;;;;;5033186;28;20127;-69
2022/10/13 02:32:24;;;;;;;24.25;14.85;;;10.00;99.90;;;;;;5032743;28;20084;-68
2022/10/13 02:34:51;;;;;;;27.42;16.63;;;10.10;99.90;;;;;;5032080;28;20049;-69
2022/10/13 02:37:16;;;;;;;26.05;14.85;;;10.00;99.90;;;;;;5032963;28;20038;-69
2022/10/13 02:39:42;;;;;;;24.80;15.85;;;10.00;99.90;;;;;;5033051;28;20049;-69
2022/10/13 02:42:08;;;;;;;27.13;15.27;;;10.00;99.90;;;;;;5031697;28;20072;-69
2022/10/13 02:44:33;;;;;;;27.17;14.77;;;10.10;99.90;;;;;;5032691;28;20033;-69
2022/10/13 02:46:59;;;;;;;24.15;14.57;;;10.00;99.90;;;;;;5032747;28;20045;-69
2022/10/13 02:49:24;;;;;;;23.75;14.57;;;9.90;99.90;;;;;;5032899;28;20436;-69
2022/10/13 02:51:52;;;;;;;25.50;14.82;;;10.00;99.90;;;;;;5031772;28;20047;-69
2022/10/13 02:54:17;;;;;;;35.95;14.75;;;9.90;99.90;;;;;;5031153;28;20503;-69
2022/10/13 02:56:43;;;;;;;24.20;16.60;;;10.00;99.90;;;;;;5032735;28;20048;-69
2022/10/13 02:59:09;;;;;;;23.80;14.43;;;10.00;99.90;;;;;;5032717;28;20045;-69
2022/10/13 03:01:39;;;;;;;23.17;14.98;;;9.90;99.90;;;;;;5031232;28;20457;-68
2022/10/13 03:04:06;;;;;;;25.00;15.80;;;10.10;99.90;;;;;;5031007;28;20069;-69
2022/10/13 03:06:31;;;;;;;24.67;15.63;;;9.90;99.90;;;;;;5032618;28;20041;-69
2022/10/13 03:08:57;;;;;;;25.27;15.43;;;9.90;99.90;;;;;;5032476;28;20041;-69
2022/10/13 03:11:22;;;;;;;30.27;15.15;;;10.10;99.90;;;;;;5031671;28;20041;-69
2022/10/13 03:13:48;;;;;;;21.75;14.52;;;10.10;99.90;;;;;;5032102;28;20048;-69
2022/10/13 03:16:13;;;;;;;34.35;16.15;;;10.10;99.90;;;;;;5032211;28;20048;-69
2022/10/13 03:18:39;;;;;;;25.55;14.38;;;10.10;99.90;;;;;;5032131;28;20072;-69
2022/10/13 03:21:05;;;;;;;30.25;16.10;;;10.00;99.90;;;;;;5032433;28;20052;-69
2022/10/13 03:23:32;;;;;;;25.38;15.57;;;10.10;99.90;;;;;;5031995;28;20085;-69
2022/10/13 03:25:57;;;;;;;26.80;15.63;;;10.10;99.90;;;;;;5032180;28;20030;-69
2022/10/13 03:28:23;;;;;;;27.92;16.25;;;10.10;99.90;;;;;;5032098;28;20349;-69
2022/10/13 03:30:48;;;;;;;21.95;15.20;;;10.00;99.90;;;;;;5032208;28;20120;-69
2022/10/13 03:33:14;;;;;;;24.17;16.08;;;10.10;99.90;;;;;;5031859;28;20037;-69
2022/10/13 03:35:40;;;;;;;30.13;16.38;;;10.20;99.90;;;;;;5032091;28;20091;-69
2022/10/13 03:38:06;;;;;;;31.75;17.75;;;10.20;99.90;;;;;;5030741;28;20052;-69
2022/10/13 03:40:32;;;;;;;32.08;16.90;;;10.20;99.90;;;;;;5031822;28;20033;-69
2022/10/13 03:42:57;;;;;;;29.88;16.45;;;10.30;99.90;;;;;;5030485;28;20041;-69
2022/10/13 03:45:23;;;;;;;25.95;16.27;;;10.20;99.90;;;;;;5031815;28;20068;-69
2022/10/13 03:47:48;;;;;;;31.38;17.08;;;10.20;99.90;;;;;;5031966;28;20043;-68
2022/10/13 03:50:14;;;;;;;31.08;16.83;;;10.20;99.90;;;;;;5031826;28;20041;-68
2022/10/13 03:52:40;;;;;;;29.38;15.18;;;10.20;99.90;;;;;;5031610;28;20522;-68
2022/10/13 03:55:05;;;;;;;26.02;17.27;;;10.20;99.90;;;;;;5029705;28;20038;-69
2022/10/13 03:57:31;;;;;;;25.92;16.52;;;10.30;99.90;;;;;;5026900;28;20116;-68
2022/10/13 03:59:57;;;;;;;27.63;19.33;;;10.20;99.90;;;;;;5031398;28;20450;-68
2022/10/13 04:02:23;;;;;;;26.35;16.52;;;10.40;99.90;;;;;;5031337;28;20049;-69
2022/10/13 04:04:49;;;;;;;27.50;17.33;;;10.20;99.90;;;;;;5031874;28;20121;-68
2022/10/13 04:07:15;;;;;;;30.98;16.90;;;10.30;99.90;;;;;;5031606;28;20491;-68
2022/10/13 04:09:40;;;;;;;26.60;16.17;;;10.30;99.90;;;;;;5031496;28;20044;-68
2022/10/13 04:12:06;;;;;;;29.80;19.00;;;10.30;99.90;;;;;;5031546;28;20143;-68
2022/10/13 04:14:31;;;;;;;33.42;18.27;;;10.20;99.90;;;;;;5031228;28;20033;-69
2022/10/13 04:16:57;;;;;;;30.30;18.55;;;10.30;99.90;;;;;;5031649;28;20038;-69
2022/10/13 04:19:22;;;;;;;30.52;19.55;;;10.30;99.90;;;;;;5029986;28;20095;-68
2022/10/13 04:21:48;;;;;;;32.15;18.65;;;10.20;99.90;;;;;;5031592;28;20091;-68
2022/10/13 04:24:16;;;;;;;32.50;19.05;;;10.30;99.90;;;;;;5035098;28;20128;-69
2022/10/13 04:26:41;;;;;;;29.92;18.95;;;10.20;99.90;;;;;;5035436;28;20041;-68
2022/10/13 04:29:09;;;;;;;36.00;21.42;;;10.30;99.90;;;;;;5035233;28;20037;-68
2022/10/13 04:31:35;;;;;;;33.90;19.38;;;10.20;99.90;;;;;;5035323;28;20037;-68
2022/10/13 04:34:00;;;;;;;31.23;21.13;;;10.30;99.90;;;;;;5033818;28;20048;-69
2022/10/13 04:36:26;;;;;;;31.20;19.85;;;10.40;99.90;;;;;;5035436;28;20038;-69
2022/10/13 04:38:53;;;;;;;31.80;18.92;;;10.40;99.90;;;;;;5035050;28;20084;-68
2022/10/13 04:41:19;;;;;;;34.88;21.10;;;10.30;99.90;;;;;;5035233;28;20116;-68
2022/10/13 04:43:49;;;;;;;39.28;21.98;;;10.30;99.90;;;;;;5034786;28;20061;-68
2022/10/13 04:46:24;;;;;;;32.15;19.48;;;10.30;99.90;;;;;;5035089;28;20394;-68
2022/10/13 04:48:50;;;;;;;31.33;20.27;;;10.40;99.90;;;;;;5033985;28;20045;-68
2022/10/13 04:51:18;;;;;;;29.83;18.67;;;10.40;99.90;;;;;;5034986;28;20125;-68
2022/10/13 04:53:44;;;;;;;37.83;20.30;;;10.30;99.90;;;;;;5033631;28;20391;-68
2022/10/13 04:56:13;;;;;;;33.35;19.23;;;10.40;99.90;;;;;;5034809;28;20063;-68
2022/10/13 04:58:39;;;;;;;29.98;18.77;;;10.30;99.90;;;;;;5034775;28;20041;-68
2022/10/13 05:01:07;;;;;;;30.30;20.20;;;10.30;99.90;;;;;;5034905;28;20045;-68
2022/10/13 05:03:33;;;;;;;31.38;20.20;;;10.30;99.90;;;;;;5034453;28;20506;-69
2022/10/13 05:05:59;;;;;;;33.63;17.55;;;10.40;99.90;;;;;;5034728;28;20045;-68
2022/10/13 05:08:24;;;;;;;28.48;18.27;;;10.20;99.90;;;;;;5034678;28;20033;-68
2022/10/13 05:10:57;;;;;;;33.50;19.73;;;10.20;99.90;;;;;;5034544;28;20495;-68
2022/10/13 05:13:23;;;;;;;29.90;20.10;;;10.30;99.90;;;;;;5034541;28;20450;-68
2022/10/13 05:15:49;;;;;;;34.22;21.45;;;10.20;99.90;;;;;;5033246;28;20102;-68
2022/10/13 05:18:15;;;;;;;37.42;23.08;;;10.40;99.90;;;;;;5034605;28;20038;-69
2022/10/13 05:20:41;;;;;;;35.50;21.55;;;10.30;99.90;;;;;;5034398;28;20119;-68
2022/10/13 05:23:07;;;;;;;34.40;22.23;;;10.40;99.90;;;;;;5032997;28;20041;-68
2022/10/13 05:25:36;;;;;;;39.42;22.65;;;10.40;99.90;;;;;;5034473;28;20405;-68
2022/10/13 05:28:04;;;;;;;44.35;23.10;;;10.40;99.90;;;;;;5034539;28;20046;-69
2022/10/13 05:30:30;;;;;;;35.35;22.55;;;10.40;99.90;;;;;;5034352;28;20128;-69
2022/10/13 05:32:56;;;;;;;36.85;22.40;;;10.30;99.90;;;;;;5032998;28;20081;-68
2022/10/13 05:35:22;;;;;;;35.63;23.67;;;10.40;99.90;;;;;;5033347;28;20056;-68
2022/10/13 05:37:48;;;;;;;41.45;24.65;;;10.40;99.90;;;;;;5032790;28;20415;-68
2022/10/13 05:40:14;;;;;;;35.95;22.63;;;10.30;99.90;;;;;;5034081;28;20037;-68
2022/10/13 05:42:39;;;;;;;39.13;23.90;;;10.40;99.90;;;;;;5033976;28;20033;-68
2022/10/13 05:45:08;;;;;;;37.25;22.98;;;10.30;99.90;;;;;;5034023;28;20127;-69
2022/10/13 05:47:34;;;;;;;43.15;24.00;;;10.30;99.90;;;;;;5034023;28;20045;-69
2022/10/13 05:49:59;;;;;;;37.95;22.17;;;10.30;99.90;;;;;;5033891;28;20052;-69
2022/10/13 05:52:26;;;;;;;38.60;23.33;;;10.40;99.90;;;;;;5033539;28;20037;-69
2022/10/13 05:54:56;;;;;;;38.60;23.83;;;10.30;99.90;;;;;;5033790;28;20563;-69
2022/10/13 05:57:29;;;;;;;46.70;26.10;;;10.40;99.90;;;;;;5033900;28;20079;-68
2022/10/13 06:00:06;;;;;;;40.63;23.85;;;10.50;99.90;;;;;;5033795;28;20037;-68
2022/10/13 06:02:36;;;;;;;39.30;23.65;;;10.40;99.90;;;;;;5033386;28;20088;-68
2022/10/13 06:05:05;;;;;;;44.17;25.38;;;10.50;99.90;;;;;;5033630;28;20081;-68
2022/10/13 06:07:30;;;;;;;39.72;24.08;;;10.50;99.90;;;;;;5033761;28;20037;-68
2022/10/13 06:09:56;;;;;;;40.38;25.80;;;10.40;99.90;;;;;;5033630;28;20115;-68
2022/10/13 06:12:22;;;;;;;40.88;27.00;;;10.60;99.90;;;;;;5033305;28;20041;-68
2022/10/13 06:14:47;;;;;;;43.45;26.42;;;10.50;99.90;;;;;;5033474;28;20513;-68
2022/10/13 06:17:13;;;;;;;42.95;25.75;;;10.40;99.90;;;;;;5032021;28;20562;-68
2022/10/13 06:19:39;;;;;;;41.10;25.30;;;10.40;99.90;;;;;;5033161;28;20084;-68
2022/10/13 06:22:04;;;;;;;52.08;29.92;;;10.40;99.90;;;;;;5033432;28;20068;-68
2022/10/13 06:24:30;;;;;;;44.85;27.25;;;10.40;99.90;;;;;;5031623;28;20041;-68
2022/10/13 06:26:56;;;;;;;51.33;29.27;;;10.40;99.90;;;;;;5033222;28;20043;-68
2022/10/13 06:29:21;;;;;;;47.42;29.38;;;10.50;99.90;;;;;;5033026;28;20115;-68
2022/10/13 06:31:47;;;;;;;47.85;27.90;;;10.60;99.90;;;;;;5033016;28;20041;-68
2022/10/13 06:34:12;;;;;;;44.08;27.42;;;10.60;99.90;;;;;;5032996;28;20157;-68
2022/10/13 06:36:38;;;;;;;45.35;25.77;;;10.60;99.90;;;;;;5033006;28;20037;-69
2022/10/13 06:39:04;;;;;;;48.53;28.50;;;10.60;99.90;;;;;;5032947;28;20116;-68
2022/10/13 06:41:29;;;;;;;52.47;28.75;;;10.50;99.90;;;;;;5033010;28;20483;-68
2022/10/13 06:43:55;;;;;;;52.47;29.52;;;10.70;99.90;;;;;;5032610;28;20124;-68
2022/10/13 06:46:20;;;;;;;57.30;30.27;;;10.50;99.90;;;;;;5032731;28;20122;-68
2022/10/13 06:48:49;;;;;;;49.08;29.38;;;10.60;99.90;;;;;;5032628;28;20037;-68
2022/10/13 06:51:14;;;;;;;54.08;29.90;;;10.60;99.90;;;;;;5031431;28;20120;-68
2022/10/13 06:53:40;;;;;;;54.08;30.25;;;10.60;99.90;;;;;;5032517;28;20084;-68
2022/10/13 06:56:07;;;;;;;51.10;30.42;;;10.70;99.90;;;;;;5032702;28;20037;-68
2022/10/13 06:58:34;;;;;;;50.60;28.35;;;10.70;99.90;;;;;;5032508;28;20052;-68
2022/10/13 07:00:59;;;;;;;48.15;29.55;;;10.60;99.90;;;;;;5032379;28;20056;-68
2022/10/13 07:03:25;;;;;;;46.97;27.05;;;10.80;99.90;;;;;;5032409;28;20037;-67
2022/10/13 07:05:50;;;;;;;42.65;26.10;;;10.80;99.90;;;;;;5032597;28;20037;-67
2022/10/13 07:08:16;;;;;;;46.17;29.40;;;11.00;99.90;;;;;;5032359;28;20045;-67
2022/10/13 07:10:42;;;;;;;42.50;26.65;;;11.10;99.90;;;;;;5032259;28;20080;-67
2022/10/13 07:13:08;;;;;;;46.30;25.70;;;11.30;99.90;;;;;;5031898;28;20052;-67
2022/10/13 07:15:36;;;;;;;42.90;27.25;;;11.40;99.90;;;;;;5032206;28;20041;-68
2022/10/13 07:18:02;;;;;;;38.53;25.30;;;11.40;99.90;;;;;;5032311;28;20037;-68
2022/10/13 07:20:27;;;;;;;41.58;24.60;;;11.50;99.90;;;;;;5031891;28;20044;-68
2022/10/13 07:22:54;;;;;;;36.30;23.10;;;11.70;99.90;;;;;;5031934;28;20056;-67
2022/10/13 07:25:19;;;;;;;34.75;23.13;;;11.80;99.90;;;;;;5032229;28;20045;-68
2022/10/13 07:27:45;;;;;;;39.22;26.38;;;11.60;99.90;;;;;;5032104;28;20048;-68
2022/10/13 07:30:11;;;;;;;35.22;23.67;;;11.90;99.90;;;;;;5031883;28;20037;-67
2022/10/13 07:32:40;;;;;;;38.63;23.98;;;11.70;99.90;;;;;;5030463;28;20045;-68
2022/10/13 07:35:06;;;;;;;34.45;23.08;;;11.80;99.90;;;;;;5032153;28;20396;-68
2022/10/13 07:37:32;;;;;;;36.63;23.13;;;11.80;99.90;;;;;;5031872;28;20128;-67
2022/10/13 07:39:59;;;;;;;34.35;21.80;;;12.10;99.90;;;;;;5031835;28;20112;-67
2022/10/13 07:42:25;;;;;;;35.55;22.17;;;11.90;99.90;;;;;;5031523;28;20041;-67
2022/10/13 07:44:50;;;;;;;35.78;23.85;;;11.90;99.90;;;;;;5030310;28;20511;-67
2022/10/13 07:47:16;;;;;;;39.53;23.40;;;12.10;99.90;;;;;;5031986;28;20183;-67
2022/10/13 07:49:41;;;;;;;33.30;21.45;;;12.10;99.90;;;;;;5031735;28;20092;-67
2022/10/13 07:52:07;;;;;;;32.17;21.27;;;12.10;99.90;;;;;;5031736;28;20044;-67
2022/10/13 07:54:32;;;;;;;29.55;19.55;;;12.20;99.90;;;;;;5031423;28;20040;-67
2022/10/13 07:56:58;;;;;;;36.20;22.17;;;12.20;99.90;;;;;;5031212;28;20033;-67
2022/10/13 07:59:23;;;;;;;35.50;22.05;;;12.10;99.90;;;;;;5031245;28;20052;-67
2022/10/13 08:01:49;;;;;;;37.47;22.75;;;12.20;99.90;;;;;;5031507;28;20041;-67
2022/10/13 08:04:15;;;;;;;32.75;20.95;;;12.30;99.90;;;;;;5031273;28;20042;-67
2022/10/13 08:06:41;;;;;;;26.92;19.15;;;12.20;99.90;;;;;;5031727;28;20125;-67
2022/10/13 08:09:07;;;;;;;35.42;21.95;;;12.40;99.90;;;;;;5031618;28;20077;-67
2022/10/13 08:11:33;;;;;;;37.58;20.67;;;12.30;99.90;;;;;;5031526;28;20410;-67
2022/10/13 08:14:00;;;;;;;34.45;21.70;;;12.30;99.90;;;;;;5031097;28;20103;-67
2022/10/13 08:16:31;;;;;;;32.17;21.98;;;12.30;99.90;;;;;;5031631;28;20037;-67
2022/10/13 08:18:57;;;;;;;33.95;21.42;;;12.40;99.90;;;;;;5031202;28;20041;-67
2022/10/13 08:21:23;;;;;;;31.08;20.45;;;12.20;99.90;;;;;;5031581;28;20128;-67
2022/10/13 08:23:49;;;;;;;35.80;21.70;;;12.30;99.90;;;;;;5031193;28;20065;-67
2022/10/13 08:26:22;;;;;;;36.38;22.35;;;12.30;99.90;;;;;;5031280;28;20547;-67
2022/10/13 08:28:47;;;;;;;36.17;21.07;;;12.50;99.90;;;;;;5031130;28;20475;-68
2022/10/13 08:31:13;;;;;;;37.10;21.75;;;12.60;99.90;;;;;;5031454;28;20068;-68
2022/10/13 08:33:40;;;;;;;34.80;21.70;;;12.40;99.90;;;;;;5031157;28;20038;-69
2022/10/13 08:36:06;;;;;;;30.77;20.02;;;12.60;99.90;;;;;;5031146;28;20512;-68
2022/10/13 08:38:32;;;;;;;34.28;22.15;;;12.40;99.90;;;;;;5031259;28;20042;-68
2022/10/13 08:40:58;;;;;;;32.67;21.15;;;12.60;99.90;;;;;;5031027;28;20033;-68
2022/10/13 08:43:24;;;;;;;35.83;21.73;;;12.50;99.90;;;;;;5031147;28;20041;-67
2022/10/13 08:45:55;;;;;;;37.78;22.50;;;12.40;99.90;;;;;;5030056;28;20087;-67
2022/10/13 08:48:24;;;;;;;33.63;21.10;;;12.50;99.90;;;;;;5031022;28;20454;-68
2022/10/13 08:50:53;;;;;;;31.75;21.70;;;12.60;99.90;;;;;;5031078;28;20050;-67
2022/10/13 08:53:37;;;;;;;38.35;23.75;;;12.60;99.90;;;;;;5030721;28;20495;-67
2022/10/13 08:56:18;;;;;;;37.47;23.73;;;12.60;99.90;;;;;;5031293;28;20041;-69
2022/10/13 08:58:45;;;;;;;33.78;23.23;;;12.60;99.90;;;;;;5031077;28;20446;-67
2022/10/13 09:01:29;;;;;;;36.97;24.00;;;12.60;99.90;;;;;;5030991;28;20041;-67
2022/10/13 09:04:28;;;;;;;33.47;22.77;;;12.60;99.90;;;;;;5030769;28;20041;-67
2022/10/13 09:07:17;;;;;;;43.38;26.60;;;12.60;99.90;;;;;;5030952;28;20376;-68
2022/10/13 09:09:43;;;;;;;33.08;22.33;;;12.40;99.90;;;;;;5032030;28;20121;-67
2022/10/13 09:12:12;;;;;;;38.70;23.63;;;12.70;99.90;;;;;;5034572;28;20084;-67
2022/10/13 09:14:40;;;;;;;36.05;24.20;;;12.60;99.90;;;;;;5034237;28;20044;-67
2022/10/13 09:17:15;;;;;;;36.63;25.23;;;12.70;99.90;;;;;;5034634;28;20038;-68
2022/10/13 09:19:41;;;;;;;34.75;23.35;;;12.70;99.90;;;;;;5034313;28;20077;-68
2022/10/13 09:22:28;;;;;;;33.42;23.73;;;12.80;99.90;;;;;;5034312;28;20183;-67
2022/10/13 09:25:06;;;;;;;35.67;24.15;;;12.80;99.90;;;;;;5034104;28;20041;-68
2022/10/13 09:27:41;;;;;;;40.67;24.35;;;12.60;99.90;;;;;;5034210;28;20515;-67
2022/10/13 09:30:25;;;;;;;43.58;26.75;;;12.70;99.90;;;;;;5030082;28;20094;-67
2022/10/13 09:33:03;;;;;;;42.72;27.05;;;12.70;99.90;;;;;;5029873;28;20072;-68
2022/10/13 09:35:32;;;;;;;40.08;27.35;;;12.90;99.90;;;;;;5014471;28;20038;-67
2022/10/13 09:38:18;;;;;;;45.70;27.60;;;12.70;99.90;;;;;;5014286;28;20115;-67
2022/10/13 09:40:59;;;;;;;45.47;27.17;;;12.80;99.90;;;;;;5014295;28;20037;-68
2022/10/13 09:43:36;;;;;;;51.05;31.05;;;13.00;99.90;;;;;;5013976;28;20116;-67
2022/10/13 09:46:10;;;;;;;47.70;28.65;;;12.80;99.90;;;;;;5014105;28;20046;-67
2022/10/13 09:48:36;;;;;;;40.75;26.42;;;13.00;99.90;;;;;;5014323;28;20107;-67
2022/10/13 09:51:02;;;;;;;45.53;25.60;;;13.10;99.90;;;;;;5014249;28;20074;-67
2022/10/13 09:53:39;;;;;;;42.65;26.30;;;12.90;99.90;;;;;;5013748;28;20073;-67
2022/10/13 09:56:40;;;;;;;46.25;27.48;;;13.00;99.90;;;;;;5014054;28;20045;-67
2022/10/13 09:59:27;;;;;;;45.20;27.58;;;13.00;99.90;;;;;;5013935;28;20049;-67
2022/10/13 10:01:56;;;;;;;47.13;28.08;;;13.00;99.90;;;;;;5012908;28;20121;-67
2022/10/13 10:04:41;;;;;;;43.80;27.45;;;13.10;99.90;;;;;;5013479;28;20401;-67
2022/10/13 10:07:20;;;;;;;40.88;25.25;;;13.30;99.90;;;;;;5013989;28;20096;-67
2022/10/13 10:10:00;;;;;;;41.10;26.60;;;13.10;99.90;;;;;;5013735;28;20053;-67
2022/10/13 10:12:29;;;;;;;39.85;26.15;;;13.30;99.90;;;;;;5013505;28;20034;-67
2022/10/13 10:14:55;;;;;;;43.15;28.23;;;13.20;99.90;;;;;;5013555;28;20041;-67
2022/10/13 10:17:44;;;;;;;40.60;25.23;;;13.30;99.90;;;;;;5013663;28;20033;-67
2022/10/13 10:20:40;;;;;;;43.15;26.75;;;13.30;99.90;;;;;;5013126;28;20042;-67
2022/10/13 10:23:17;;;;;;;46.00;27.20;;;13.30;99.90;;;;;;5013175;28;20038;-67
2022/10/13 10:25:57;;;;;;;40.58;26.17;;;13.30;99.90;;;;;;5013622;28;20402;-67
2022/10/13 10:29:06;;;;;;;42.75;26.92;;;13.30;99.90;;;;;;5013566;28;20045;-67
2022/10/13 10:31:43;;;;;;;41.58;25.77;;;13.10;99.90;;;;;;4984701;28;20060;-67
2022/10/13 10:34:21;;;;;;;32.13;23.48;;;13.20;99.90;;;;;;5011712;28;20041;-67
2022/10/13 10:37:16;;;;;;;41.92;25.65;;;13.10;99.90;;;;;;5013306;28;20033;-67
2022/10/13 10:39:47;;;;;;;40.50;25.00;;;13.10;99.90;;;;;;5011792;28;20052;-67
2022/10/13 10:42:34;;;;;;;35.17;23.80;;;13.20;99.90;;;;;;5013271;28;20042;-67
2022/10/13 10:45:03;;;;;;;36.85;23.75;;;13.40;99.90;;;;;;5013208;28;20044;-67
2022/10/13 10:47:38;;;;;;;35.90;24.27;;;13.20;99.90;;;;;;5013064;28;20104;-67
2022/10/13 10:50:06;;;;;;;33.42;23.05;;;13.20;99.90;;;;;;5012969;28;20041;-67
2022/10/13 10:53:21;;;;;;;36.58;24.92;;;13.30;99.90;;;;;;5012572;28;20399;-67
2022/10/13 10:56:01;;;;;;;33.85;23.30;;;13.20;99.90;;;;;;5008066;28;20046;-67
2022/10/13 10:58:39;;;;;;;33.97;22.33;;;13.40;99.90;;;;;;5012824;28;20042;-67
2022/10/13 11:01:22;;;;;;;36.60;24.13;;;13.20;99.90;;;;;;5012723;28;20546;-67
2022/10/13 11:04:14;;;;;;;32.50;24.83;;;13.40;99.90;;;;;;5012680;28;20042;-67
2022/10/13 11:06:40;;;;;;;36.58;25.40;;;13.20;99.90;;;;;;5012686;28;20050;-67
2022/10/13 11:09:09;;;;;;;34.45;24.70;;;13.20;99.90;;;;;;5012513;28;20113;-67
2022/10/13 11:11:37;;;;;;;40.08;24.88;;;13.30;99.90;;;;;;5012846;28;20050;-67
2022/10/13 11:14:06;;;;;;;34.83;23.67;;;13.20;99.90;;;;;;5010948;28;20042;-67
2022/10/13 11:16:56;;;;;;;39.92;24.55;;;13.30;99.90;;;;;;5012700;28;20106;-67
2022/10/13 11:19:35;;;;;;;39.45;26.98;;;13.30;99.90;;;;;;5012163;28;20049;-67
2022/10/13 11:22:00;;;;;;;43.13;27.08;;;13.30;99.90;;;;;;5012521;28;20052;-67
2022/10/13 11:24:45;;;;;;;44.38;27.38;;;13.30;99.90;;;;;;5012071;28;20116;-67
2022/10/13 11:27:14;;;;;;;46.42;27.05;;;13.40;99.90;;;;;;5012321;28;20040;-67
2022/10/13 11:29:43;;;;;;;35.67;25.33;;;13.40;99.90;;;;;;5012195;28;20060;-68
2022/10/13 11:32:29;;;;;;;39.58;27.50;;;13.40;99.90;;;;;;5011407;28;20869;-67
2022/10/13 11:35:24;;;;;;;36.88;25.98;;;13.60;99.90;;;;;;5012364;28;20411;-68
2022/10/13 11:38:03;;;;;;;40.08;26.42;;;13.50;99.90;;;;;;5012165;28;20455;-67
2022/10/13 11:40:41;;;;;;;46.13;28.33;;;13.60;99.90;;;;;;5011958;28;20044;-67
2022/10/13 11:43:27;;;;;;;40.55;27.90;;;13.70;99.90;;;;;;5011892;28;20048;-67
2022/10/13 11:46:18;;;;;;;41.22;26.45;;;13.70;99.90;;;;;;5011977;28;20038;-67
2022/10/13 11:49:09;;;;;;;43.67;27.42;;;13.60;99.90;;;;;;5011833;28;20045;-67
2022/10/13 11:51:50;;;;;;;44.60;28.10;;;13.60;99.90;;;;;;5012041;28;20123;-67
2022/10/13 11:54:22;;;;;;;44.47;28.08;;;13.50;99.90;;;;;;5011615;28;20049;-67
2022/10/13 11:56:56;;;;;;;51.93;30.73;;;13.60;99.90;;;;;;5011805;28;20042;-67
2022/10/13 11:59:33;;;;;;;44.88;27.95;;;13.60;99.90;;;;;;5011824;28;20042;-67
2022/10/13 12:02:11;;;;;;;53.05;30.80;;;13.80;99.90;;;;;;5011860;28;20034;-67
2022/10/13 12:04:39;;;;;;;49.22;30.58;;;13.70;99.90;;;;;;5011869;28;20480;-67
2022/10/13 12:07:14;;;;;;;43.92;29.35;;;13.70;99.90;;;;;;5011824;28;20038;-67
2022/10/13 12:09:53;;;;;;;50.38;28.75;;;13.70;99.90;;;;;;5011631;28;20053;-67
2022/10/13 12:12:20;;;;;;;41.97;26.95;;;13.90;99.90;;;;;;5011703;28;20042;-67
2022/10/13 12:14:52;;;;;;;43.00;28.05;;;13.70;99.90;;;;;;5011677;28;20048;-67
2022/10/13 12:17:27;;;;;;;53.13;30.80;;;13.90;99.90;;;;;;5016393;28;20092;-68
2022/10/13 12:19:55;;;;;;;53.22;32.47;;;13.90;99.90;;;;;;5027711;28;20096;-67
2022/10/13 12:22:21;;;;;;;48.78;28.17;;;14.00;99.90;;;;;;5031098;28;20037;-67
2022/10/13 12:25:04;;;;;;;43.17;28.55;;;14.00;99.90;;;;;;5031378;28;20120;-67
2022/10/13 12:27:39;;;;;;;43.00;28.13;;;14.00;99.90;;;;;;5031229;28;20079;-68
2022/10/13 12:30:20;;;;;;;42.17;27.08;;;13.90;99.90;;;;;;5031264;28;20043;-67
2022/10/13 12:32:50;;;;;;;44.28;28.42;;;13.90;99.90;;;;;;5031122;28;20033;-67
2022/10/13 12:35:22;;;;;;;44.85;28.50;;;13.80;99.90;;;;;;5031376;28;20052;-67
2022/10/13 12:37:48;;;;;;;38.90;26.70;;;13.90;99.90;;;;;;5031073;28;20423;-68
2022/10/13 12:40:16;;;;;;;45.33;28.98;;;13.80;99.90;;;;;;5031137;28;20033;-67
2022/10/13 12:42:43;;;;;;;45.65;28.73;;;13.90;99.90;;;;;;5030885;28;20045;-68
2022/10/13 12:45:20;;;;;;;44.80;28.58;;;13.80;99.90;;;;;;5034684;28;20049;-68
2022/10/13 12:47:51;;;;;;;39.25;27.92;;;14.00;99.90;;;;;;5034972;28;20038;-68